Time;durP1;ratioP1;P1;durP2;ratioP2;P2;SDS_P1;SDS_P2;PMS_P1;PMS_P2;Temp;Humidity;BMP_temperature;BMP_pressure;BME280_temperature;BME280_humidity;BME280_pressure;Samples;Min_cycle;Max_cycle;Signal;HPM_P1;HPM_P2
2022/04/11 00:00:13;;;;;;;;;;;;;;;18.21;61.29;99187.13;2086497;28;19963;-47
2022/04/11 00:01:14;;;;;;;;;;;;;;;18.20;61.31;99188.16;2088265;28;19920;-47
2022/04/11 00:02:15;;;;;;;;;;;;;;;18.19;61.24;99183.81;2086197;28;20015;-47
2022/04/11 00:03:17;;;;;;;;;;;;;;;18.19;61.41;99182.97;2088097;28;20486;-49
2022/04/11 00:04:18;;;;;;;;;;;;;;;18.18;61.13;99184.00;2087701;28;20733;-48
2022/04/11 00:05:19;;;;;;;;;;;;;;;18.18;61.39;99184.00;2086696;28;19929;-48
2022/04/11 00:06:20;;;;;;;;;;;;;;;18.18;61.36;99192.06;2087292;28;20004;-47
2022/04/11 00:07:21;;;;;;;;;;;;;;;18.17;61.25;99190.41;2084790;28;20009;-47
2022/04/11 00:08:22;;;;;;;;;;;;;;;18.17;61.37;99183.16;2085807;28;19981;-48
2022/04/11 00:09:24;;;;;;;;;;;;;;;18.17;61.38;99185.84;2088215;28;19985;-48
2022/04/11 00:10:24;;;;;;;;;;;;;;;18.15;61.33;99184.38;2084210;28;19932;-47
2022/04/11 00:11:26;;;;;;;;;;;;;;;18.14;61.55;99183.53;2088525;28;19983;-47
2022/04/11 00:12:26;;;;;;;;;;;;;;;18.14;61.48;99183.53;2088325;28;19927;-47
2022/04/11 00:13:28;;;;;;;;;;;;;;;18.14;61.48;99182.72;2087347;28;19924;-47
2022/04/11 00:14:30;;;;;;;;;;;;;;;18.13;61.56;99181.03;2087182;28;19931;-48
2022/04/11 00:15:33;;;;;;;;;;;;;;;18.12;61.28;99187.44;2087226;28;19924;-48
2022/04/11 00:16:34;;;;;;;;;;;;;;;18.11;61.12;99181.25;2083697;28;19974;-47
2022/04/11 00:17:36;;;;;;;;;;;;;;;18.10;61.53;99182.25;2088059;28;19982;-47
2022/04/11 00:18:36;;;;;;;;;;;;;;;18.11;61.55;99183.06;2082250;28;20054;-47
2022/04/11 00:19:38;;;;;;;;;;;;;;;18.11;61.41;99183.06;2087713;28;19931;-49
2022/04/11 00:20:39;;;;;;;;;;;;;;;18.09;61.34;99184.09;2088313;28;19931;-48
2022/04/11 00:21:40;;;;;;;;;;;;;;;18.08;61.47;99179.75;2088984;28;20290;-48
2022/04/11 00:22:41;;;;;;;;;;;;;;;18.07;61.43;99183.44;2086361;28;20432;-47
2022/04/11 00:23:42;;;;;;;;;;;;;;;18.07;61.31;99183.44;2086393;28;19920;-49
2022/04/11 00:24:43;;;;;;;;;;;;;;;18.06;61.46;99176.41;2086664;28;19924;-48
2022/04/11 00:25:44;;;;;;;;;;;;;;;18.07;61.55;99178.06;2088051;28;19925;-47
2022/04/11 00:26:45;;;;;;;;;;;;;;;18.07;61.28;99185.31;2086848;28;19921;-50
2022/04/11 00:27:46;;;;;;;;;;;;;;;18.06;61.57;99180.97;2085945;28;19925;-47
2022/04/11 00:28:47;;;;;;;;;;;;;;;18.07;61.28;99182.63;2087965;28;19942;-46
2022/04/11 00:29:50;;;;;;;;;;;;;;;18.04;61.28;99180.31;2087302;28;19925;-46
2022/04/11 00:30:50;;;;;;;;;;;;;;;18.04;61.36;99175.75;2086464;28;20375;-50
2022/04/11 00:31:52;;;;;;;;;;;;;;;18.03;61.57;99171.44;2087464;28;19932;-52
2022/04/11 00:32:52;;;;;;;;;;;;;;;18.02;61.42;99175.13;2088272;28;19934;-52
2022/04/11 00:33:54;;;;;;;;;;;;;;;18.01;61.66;99178.81;2084332;28;20551;-49
2022/04/11 00:34:54;;;;;;;;;;;;;;;18.01;61.46;99178.81;2086661;28;20015;-54
2022/04/11 00:35:56;;;;;;;;;;;;;;;18.01;61.53;99178.81;2085603;28;19928;-52
2022/04/11 00:36:56;;;;;;;;;;;;;;;18.01;61.38;99175.31;2085187;28;20067;-51
2022/04/11 00:37:58;;;;;;;;;;;;;;;18.02;61.54;99175.13;2083966;28;19928;-51
2022/04/11 00:38:58;;;;;;;;;;;;;;;18.00;61.58;99177.16;2083306;28;19928;-45
2022/04/11 00:40:00;;;;;;;;;;;;;;;18.01;61.57;99184.19;2085277;28;19927;-54
2022/04/11 00:41:00;;;;;;;;;;;;;;;17.99;61.45;99175.50;2087397;28;19974;-45
2022/04/11 00:42:07;;;;;;;;;;;;;;;17.99;61.39;99175.50;2086727;28;20803;-55
2022/04/11 00:43:09;;;;;;;;;;;;;;;17.99;61.67;99180.03;2082209;28;19933;-47
2022/04/11 00:44:09;;;;;;;;;;;;;;;17.97;61.55;99174.88;2085546;28;20348;-47
2022/04/11 00:45:12;;;;;;;;;;;;;;;17.97;61.82;99179.38;2085538;28;19928;-48
2022/04/11 00:46:13;;;;;;;;;;;;;;;17.96;61.53;99178.53;2086290;28;19924;-47
2022/04/11 00:47:14;;;;;;;;;;;;;;;17.96;61.58;99170.50;2088279;28;19924;-48
2022/04/11 00:48:15;;;;;;;;;;;;;;;17.96;61.89;99181.22;2086426;28;19935;-47
2022/04/11 00:49:17;;;;;;;;;;;;;;;17.96;61.46;99180.41;2086140;28;19920;-47
2022/04/11 00:50:17;;;;;;;;;;;;;;;17.94;61.70;99177.91;2087438;28;19924;-48
2022/04/11 00:51:21;;;;;;;;;;;;;;;17.93;61.75;99170.88;2086972;28;20474;-47
2022/04/11 00:52:21;;;;;;;;;;;;;;;17.93;61.61;99181.59;2084290;28;19925;-48
2022/04/11 00:53:24;;;;;;;;;;;;;;;17.92;61.54;99182.63;2086505;28;20436;-46
2022/04/11 00:54:25;;;;;;;;;;;;;;;17.91;61.84;99183.63;2085443;28;20002;-48
2022/04/11 00:55:27;;;;;;;;;;;;;;;17.91;61.63;99183.63;2088098;28;20560;-48
2022/04/11 00:56:28;;;;;;;;;;;;;;;17.90;61.54;99184.66;2086823;28;19932;-48
2022/04/11 00:57:30;;;;;;;;;;;;;;;17.91;61.77;99180.94;2084507;28;19934;-48
2022/04/11 00:58:30;;;;;;;;;;;;;;;17.88;61.60;99178.63;2084891;28;19963;-50
2022/04/11 00:59:32;;;;;;;;;;;;;;;17.90;61.71;99183.84;2084888;28;19924;-49
2022/04/11 01:00:34;;;;;;;;;;;;;;;17.89;61.44;99177.66;2085156;28;19928;-49
2022/04/11 01:01:36;;;;;;;;;;;;;;;17.88;61.57;99177.81;2088521;28;19921;-46
2022/04/11 01:02:36;;;;;;;;;;;;;;;17.86;61.80;99178.00;2087883;28;19931;-47
2022/04/11 01:03:38;;;;;;;;;;;;;;;17.86;61.76;99178.84;2085695;28;20098;-47
2022/04/11 01:04:40;;;;;;;;;;;;;;;17.86;61.78;99176.16;2086655;28;20291;-46
2022/04/11 01:05:42;;;;;;;;;;;;;;;17.85;61.62;99184.38;2088632;28;19924;-46
2022/04/11 01:06:42;;;;;;;;;;;;;;;17.85;61.88;99177.16;2088427;28;19925;-49
2022/04/11 01:07:44;;;;;;;;;;;;;;;17.84;61.62;99182.72;2086855;28;19986;-45
2022/04/11 01:08:44;;;;;;;;;;;;;;;17.85;61.64;99182.53;2087690;28;19933;-47
2022/04/11 01:09:46;;;;;;;;;;;;;;;17.83;61.71;99179.22;2087962;28;19944;-46
2022/04/11 01:10:47;;;;;;;;;;;;;;;17.85;61.56;99181.69;2085124;28;19924;-45
2022/04/11 01:11:49;;;;;;;;;;;;;;;17.85;61.69;99184.38;2085634;28;19935;-47
2022/04/11 01:12:50;;;;;;;;;;;;;;;17.83;61.77;99187.28;2084009;28;19974;-45
2022/04/11 01:13:51;;;;;;;;;;;;;;;17.83;61.67;99186.44;2086597;28;19924;-47
2022/04/11 01:14:52;;;;;;;;;;;;;;;17.80;61.87;99190.31;2088228;28;19924;-48
2022/04/11 01:15:56;;;;;;;;;;;;;;;17.82;61.72;99195.50;2088026;28;19928;-48
2022/04/11 01:16:57;;;;;;;;;;;;;;;17.80;61.84;99189.47;2087376;28;20024;-48
2022/04/11 01:17:59;;;;;;;;;;;;;;;17.82;61.62;99201.69;2089090;28;19928;-46
2022/04/11 01:18:59;;;;;;;;;;;;;;;17.79;61.75;99195.84;2085694;28;19925;-45
2022/04/11 01:20:06;;;;;;;;;;;;;;;17.78;61.90;99191.50;2086424;28;20018;-47
2022/04/11 01:21:09;;;;;;;;;;;;;;;17.76;61.74;99188.97;2081205;28;21163;-45
2022/04/11 01:22:11;;;;;;;;;;;;;;;17.75;61.71;99200.75;2089194;28;20297;-49
2022/04/11 01:23:13;;;;;;;;;;;;;;;17.77;61.83;99203.22;2088938;28;20399;-46
2022/04/11 01:24:15;;;;;;;;;;;;;;;17.75;61.74;99205.28;2089259;28;20513;-46
2022/04/11 01:25:18;;;;;;;;;;;;;;;17.75;61.88;99205.28;2086467;28;20936;-48
2022/04/11 01:26:20;;;;;;;;;;;;;;;17.74;61.79;99209.78;2088301;28;19973;-48
2022/04/11 01:27:22;;;;;;;;;;;;;;;17.75;61.72;99208.78;2088965;28;19924;-47
2022/04/11 01:28:23;;;;;;;;;;;;;;;17.75;61.76;99211.47;2087195;28;19925;-50
2022/04/11 01:29:25;;;;;;;;;;;;;;;17.74;61.62;99212.47;2089279;28;19924;-56
2022/04/11 01:30:26;;;;;;;;;;;;;;;17.73;61.92;99212.66;2090325;28;20559;-50
2022/04/11 01:31:27;;;;;;;;;;;;;;;17.72;61.93;99210.97;2088514;28;19934;-53
2022/04/11 01:32:28;;;;;;;;;;;;;;;17.73;61.75;99218.88;2081648;28;20593;-50
2022/04/11 01:33:30;;;;;;;;;;;;;;;17.74;61.91;99217.84;2088824;28;19924;-47
2022/04/11 01:34:31;;;;;;;;;;;;;;;17.72;61.94;99216.34;2088216;28;19920;-51
2022/04/11 01:35:32;;;;;;;;;;;;;;;17.71;61.89;99215.53;2089259;28;20480;-46
2022/04/11 01:36:33;;;;;;;;;;;;;;;17.71;61.86;99218.19;2087621;28;19928;-52
2022/04/11 01:37:36;;;;;;;;;;;;;;;17.71;61.72;99214.69;2084084;28;19925;-48
2022/04/11 01:38:36;;;;;;;;;;;;;;;17.70;61.81;99213.03;2088553;28;19924;-49
2022/04/11 01:39:38;;;;;;;;;;;;;;;17.68;61.71;99209.69;2089235;28;20486;-49
2022/04/11 01:40:46;;;;;;;;;;;;;;;17.70;61.86;99213.88;2084400;28;19928;-49
2022/04/11 01:41:48;;;;;;;;;;;;;;;17.70;61.81;99213.03;2085402;28;19924;-48
2022/04/11 01:42:48;;;;;;;;;;;;;;;17.68;61.80;99215.06;2085689;28;19925;-56
2022/04/11 01:43:50;;;;;;;;;;;;;;;17.67;61.68;99216.09;2088865;28;19924;-53
2022/04/11 01:44:50;;;;;;;;;;;;;;;17.68;61.57;99215.06;2088486;28;20222;-44
2022/04/11 01:45:52;;;;;;;;;;;;;;;17.65;61.76;99214.41;2089277;28;19930;-51
2022/04/11 01:46:53;;;;;;;;;;;;;;;17.67;61.74;99218.78;2085759;28;20389;-53
2022/04/11 01:47:54;;;;;;;;;;;;;;;17.67;61.73;99216.91;2089045;28;19924;-53
2022/04/11 01:48:55;;;;;;;;;;;;;;;17.67;61.74;99213.41;2085298;28;20332;-50
2022/04/11 01:49:56;;;;;;;;;;;;;;;17.68;61.79;99221.25;2087207;28;19928;-51
2022/04/11 01:50:57;;;;;;;;;;;;;;;17.65;61.64;99216.25;2087554;28;20488;-51
2022/04/11 01:51:58;;;;;;;;;;;;;;;17.64;61.89;99220.78;2088050;28;19936;-48
2022/04/11 01:53:04;;;;;;;;;;;;;;;17.62;61.70;99220.13;2085986;28;19970;-50
2022/04/11 01:54:06;;;;;;;;;;;;;;;17.63;61.85;99221.81;2088204;28;20294;-50
2022/04/11 01:55:07;;;;;;;;;;;;;;;17.65;61.50;99221.63;2087224;28;19924;-48
2022/04/11 01:56:09;;;;;;;;;;;;;;;17.65;61.62;99217.09;2087500;28;20851;-53
2022/04/11 01:57:10;;;;;;;;;;;;;;;17.63;61.41;99224.50;2087328;28;19929;-44
2022/04/11 01:58:12;;;;;;;;;;;;;;;17.62;61.54;99228.19;2085218;28;20819;-54
2022/04/11 01:59:14;;;;;;;;;;;;;;;17.60;61.81;99216.81;2082022;28;19924;-53
2022/04/11 02:00:16;;;;;;;;;;;;;;;17.59;61.81;99220.50;2086792;28;19966;-51
2022/04/11 02:01:17;;;;;;;;;;;;;;;17.59;61.74;99225.88;2086999;28;19928;-51
2022/04/11 02:02:19;;;;;;;;;;;;;;;17.58;61.59;99215.34;2084341;28;19921;-52
2022/04/11 02:03:19;;;;;;;;;;;;;;;17.58;61.62;99221.53;2089363;28;19985;-50
2022/04/11 02:04:21;;;;;;;;;;;;;;;17.55;61.72;99226.41;2084670;28;19927;-50
2022/04/11 02:05:21;;;;;;;;;;;;;;;17.57;61.77;99219.03;2086426;28;19974;-45
2022/04/11 02:06:23;;;;;;;;;;;;;;;17.54;61.58;99222.91;2088333;28;19931;-51
2022/04/11 02:07:24;;;;;;;;;;;;;;;17.55;61.66;99221.03;2087226;28;19931;-52
2022/04/11 02:08:27;;;;;;;;;;;;;;;17.54;61.88;99225.59;2087590;28;19924;-52
2022/04/11 02:09:27;;;;;;;;;;;;;;;17.51;61.79;99228.63;2086356;28;19927;-51
2022/04/11 02:10:29;;;;;;;;;;;;;;;17.50;61.80;99224.28;2085278;28;19931;-50
2022/04/11 02:11:29;;;;;;;;;;;;;;;17.51;61.85;99223.25;2087858;28;19928;-50
2022/04/11 02:12:31;;;;;;;;;;;;;;;17.51;61.81;99225.13;2085805;28;19925;-49
2022/04/11 02:13:32;;;;;;;;;;;;;;;17.49;61.61;99219.09;2076232;28;20925;-48
2022/04/11 02:14:34;;;;;;;;;;;;;;;17.50;61.86;99229.66;2087425;28;20545;-55
2022/04/11 02:15:35;;;;;;;;;;;;;;;17.51;61.85;99225.13;2087854;28;19931;-47
2022/04/11 02:16:36;;;;;;;;;;;;;;;17.51;61.71;99223.25;2082725;28;20872;-50
2022/04/11 02:17:38;;;;;;;;;;;;;;;17.51;61.76;99225.94;2087510;28;19927;-53
2022/04/11 02:18:38;;;;;;;;;;;;;;;17.49;61.57;99219.94;2084827;28;19935;-50
2022/04/11 02:19:40;;;;;;;;;;;;;;;17.52;61.70;99226.78;2087707;28;19928;-51
2022/04/11 02:20:40;;;;;;;;;;;;;;;17.52;61.70;99227.59;2084658;28;19924;-48
2022/04/11 02:21:42;;;;;;;;;;;;;;;17.51;61.66;99225.13;2085134;28;20382;-50
2022/04/11 02:22:43;;;;;;;;;;;;;;;17.46;61.80;99222.16;2088929;28;19952;-57
2022/04/11 02:23:46;;;;;;;;;;;;;;;17.47;61.87;99227.34;2086712;28;19928;-55
2022/04/11 02:24:47;;;;;;;;;;;;;;;17.46;61.81;99228.34;2086811;28;19928;-50
2022/04/11 02:25:49;;;;;;;;;;;;;;;17.43;61.71;99228.69;2084475;28;19986;-49
2022/04/11 02:26:49;;;;;;;;;;;;;;;17.43;61.87;99223.34;2085887;28;19928;-48
2022/04/11 02:27:51;;;;;;;;;;;;;;;17.44;61.57;99225.03;2086286;28;20383;-56
2022/04/11 02:28:52;;;;;;;;;;;;;;;17.43;61.58;99224.16;2086553;28;20633;-47
2022/04/11 02:29:53;;;;;;;;;;;;;;;17.45;61.73;99221.31;2085695;28;19935;-50
2022/04/11 02:30:54;;;;;;;;;;;;;;;17.48;61.69;99223.63;2085155;28;20383;-52
2022/04/11 02:31:55;;;;;;;;;;;;;;;17.45;61.75;99225.84;2088634;28;19924;-50
2022/04/11 02:32:56;;;;;;;;;;;;;;;17.43;61.54;99220.66;2086556;28;20042;-48
2022/04/11 02:33:57;;;;;;;;;;;;;;;17.43;61.74;99223.34;2085643;28;19928;-56
2022/04/11 02:34:58;;;;;;;;;;;;;;;17.41;61.84;99220.00;2085844;28;19935;-50
2022/04/11 02:35:59;;;;;;;;;;;;;;;17.40;61.73;99223.72;2086276;28;19927;-54
2022/04/11 02:37:00;;;;;;;;;;;;;;;17.40;61.74;99223.72;2087132;28;20012;-47
2022/04/11 02:38:01;;;;;;;;;;;;;;;17.43;61.70;99223.34;2088084;28;19928;-54
2022/04/11 02:39:03;;;;;;;;;;;;;;;17.43;61.75;99223.34;2087158;28;19931;-47
2022/04/11 02:40:07;;;;;;;;;;;;;;;17.43;61.64;99223.34;2081607;28;19928;-50
2022/04/11 02:41:09;;;;;;;;;;;;;;;17.39;61.87;99222.06;2087637;28;19932;-49
2022/04/11 02:42:09;;;;;;;;;;;;;;;17.38;61.63;99221.22;2088239;28;19936;-51
2022/04/11 02:43:11;;;;;;;;;;;;;;;17.34;61.74;99217.22;2086078;28;20027;-50
2022/04/11 02:44:11;;;;;;;;;;;;;;;17.32;62.04;99227.28;2085330;28;20443;-51
2022/04/11 02:45:14;;;;;;;;;;;;;;;17.31;61.89;99219.44;2085015;28;19990;-52
2022/04/11 02:46:15;;;;;;;;;;;;;;;17.31;61.86;99222.13;2087565;28;19920;-49
2022/04/11 02:47:17;;;;;;;;;;;;;;;17.31;61.86;99219.44;2090062;28;19928;-52
2022/04/11 02:48:18;;;;;;;;;;;;;;;17.32;61.93;99219.25;2078092;28;19920;-53
2022/04/11 02:49:19;;;;;;;;;;;;;;;17.34;61.88;99216.38;2085866;28;19924;-52
2022/04/11 02:50:20;;;;;;;;;;;;;;;17.31;61.78;99219.44;2089342;28;19935;-54
2022/04/11 02:51:21;;;;;;;;;;;;;;;17.31;61.87;99214.91;2086428;28;19927;-48
2022/04/11 02:52:22;;;;;;;;;;;;;;;17.32;61.80;99215.72;2085975;28;19935;-53
2022/04/11 02:53:23;;;;;;;;;;;;;;;17.31;61.74;99217.59;2088785;28;19925;-43
2022/04/11 02:54:26;;;;;;;;;;;;;;;17.32;61.79;99218.41;2089334;28;20684;-50
2022/04/11 02:55:26;;;;;;;;;;;;;;;17.29;61.80;99211.56;2088186;28;19992;-47
2022/04/11 02:56:28;;;;;;;;;;;;;;;17.28;61.74;99212.59;2089362;28;19936;-48
2022/04/11 02:57:29;;;;;;;;;;;;;;;17.29;62.15;99216.09;2086574;28;19944;-54
2022/04/11 02:58:30;;;;;;;;;;;;;;;17.29;61.73;99211.56;2089456;28;19935;-47
2022/04/11 02:59:32;;;;;;;;;;;;;;;17.30;61.70;99212.38;2087640;28;20011;-48
2022/04/11 03:00:33;;;;;;;;;;;;;;;17.30;61.76;99209.72;2089491;28;19928;-47
2022/04/11 03:01:34;;;;;;;;;;;;;;;17.32;61.74;99213.06;2089452;28;19931;-47
2022/04/11 03:02:36;;;;;;;;;;;;;;;17.29;61.71;99205.38;2088295;28;19927;-49
2022/04/11 03:03:37;;;;;;;;;;;;;;;17.27;61.70;99210.06;2089917;28;19925;-47
2022/04/11 03:04:39;;;;;;;;;;;;;;;17.27;61.97;99208.22;2089309;28;19925;-45
2022/04/11 03:05:39;;;;;;;;;;;;;;;17.27;61.92;99207.41;2085018;28;20455;-48
2022/04/11 03:06:41;;;;;;;;;;;;;;;17.26;61.88;99205.75;2088551;28;19928;-46
2022/04/11 03:07:41;;;;;;;;;;;;;;;17.30;61.81;99217.75;2086904;28;19925;-48
2022/04/11 03:08:43;;;;;;;;;;;;;;;17.29;61.77;99206.19;2080571;28;20610;-49
2022/04/11 03:09:45;;;;;;;;;;;;;;;17.28;61.67;99215.28;2089865;28;19923;-47
2022/04/11 03:10:46;;;;;;;;;;;;;;;17.28;61.90;99214.44;2087126;28;19973;-47
2022/04/11 03:11:47;;;;;;;;;;;;;;;17.28;61.63;99212.59;2088985;28;20389;-50
2022/04/11 03:12:48;;;;;;;;;;;;;;;17.26;61.79;99219.97;2089538;28;19975;-46
2022/04/11 03:13:49;;;;;;;;;;;;;;;17.29;61.71;99213.41;2088063;28;19920;-46
2022/04/11 03:14:50;;;;;;;;;;;;;;;17.29;61.69;99218.78;2090054;28;19986;-45
2022/04/11 03:15:51;;;;;;;;;;;;;;;17.27;61.58;99215.44;2088026;28;19925;-47
2022/04/11 03:16:52;;;;;;;;;;;;;;;17.22;61.78;99220.50;2088010;28;19929;-48
2022/04/11 03:17:53;;;;;;;;;;;;;;;17.24;61.74;99211.28;2089332;28;19935;-49
2022/04/11 03:18:54;;;;;;;;;;;;;;;17.22;61.86;99218.69;2089845;28;19925;-46
2022/04/11 03:19:55;;;;;;;;;;;;;;;17.22;61.81;99212.47;2088110;28;20442;-47
2022/04/11 03:20:56;;;;;;;;;;;;;;;17.24;61.79;99213.13;2087292;28;19928;-47
2022/04/11 03:21:58;;;;;;;;;;;;;;;17.22;61.87;99216.00;2089701;28;20057;-48
2022/04/11 03:23:00;;;;;;;;;;;;;;;17.22;61.59;99215.13;2089570;28;19920;-47
2022/04/11 03:24:00;;;;;;;;;;;;;;;17.25;61.75;99212.13;2084613;28;19925;-48
2022/04/11 03:25:04;;;;;;;;;;;;;;;17.19;61.55;99211.81;2089527;28;19921;-49
2022/04/11 03:26:05;;;;;;;;;;;;;;;17.20;61.72;99215.34;2089040;28;19946;-47
2022/04/11 03:27:06;;;;;;;;;;;;;;;17.19;61.75;99214.50;2088329;28;19928;-49
2022/04/11 03:28:07;;;;;;;;;;;;;;;17.22;61.85;99215.13;2079274;28;19928;-51
2022/04/11 03:29:09;;;;;;;;;;;;;;;17.17;61.65;99219.22;2084182;28;19925;-45
2022/04/11 03:30:11;;;;;;;;;;;;;;;17.19;61.76;99211.81;2086653;28;19948;-49
2022/04/11 03:31:12;;;;;;;;;;;;;;;17.19;61.61;99211.00;2087015;28;20011;-48
2022/04/11 03:32:14;;;;;;;;;;;;;;;17.19;61.45;99211.81;2086281;28;20434;-48
2022/04/11 03:33:16;;;;;;;;;;;;;;;17.18;61.71;99212.81;2090144;28;19924;-47
2022/04/11 03:34:16;;;;;;;;;;;;;;;17.19;61.79;99206.47;2086102;28;20043;-47
2022/04/11 03:35:18;;;;;;;;;;;;;;;17.18;61.75;99212.00;2086265;28;19921;-47
2022/04/11 03:36:19;;;;;;;;;;;;;;;17.17;61.76;99202.28;2080884;28;19924;-49
2022/04/11 03:37:22;;;;;;;;;;;;;;;17.15;61.68;99194.41;2082141;28;19964;-49
2022/04/11 03:38:22;;;;;;;;;;;;;;;17.17;61.58;99203.13;2085536;28;20390;-45
2022/04/11 03:39:24;;;;;;;;;;;;;;;17.20;61.89;99207.28;2089150;28;19956;-46
2022/04/11 03:40:26;;;;;;;;;;;;;;;17.22;61.67;99210.63;2088888;28;20405;-47
2022/04/11 03:41:27;;;;;;;;;;;;;;;17.17;61.59;99207.66;2088092;28;20019;-47
2022/04/11 03:42:28;;;;;;;;;;;;;;;17.13;61.80;99203.66;2087428;28;19932;-45
2022/04/11 03:43:30;;;;;;;;;;;;;;;17.12;61.78;99199.31;2085972;28;20304;-45
2022/04/11 03:44:32;;;;;;;;;;;;;;;17.11;61.92;99203.84;2083896;28;19929;-47
2022/04/11 03:45:32;;;;;;;;;;;;;;;17.13;61.81;99203.66;2089180;28;19939;-48
2022/04/11 03:46:34;;;;;;;;;;;;;;;17.11;61.81;99206.53;2088003;28;19956;-47
2022/04/11 03:47:34;;;;;;;;;;;;;;;17.10;61.84;99204.03;2086417;28;19924;-46
2022/04/11 03:48:36;;;;;;;;;;;;;;;17.09;61.75;99211.22;2089465;28;20019;-47
2022/04/11 03:49:36;;;;;;;;;;;;;;;17.08;61.84;99203.38;2088549;28;20558;-47
2022/04/11 03:50:38;;;;;;;;;;;;;;;17.08;61.82;99198.84;2087129;28;19977;-47
2022/04/11 03:51:39;;;;;;;;;;;;;;;17.08;61.88;99201.53;2085696;28;19943;-47
2022/04/11 03:52:41;;;;;;;;;;;;;;;17.09;61.83;99202.38;2089679;28;19935;-46
2022/04/11 03:53:41;;;;;;;;;;;;;;;17.09;61.96;99203.19;2089012;28;19928;-47
2022/04/11 03:54:43;;;;;;;;;;;;;;;17.08;61.63;99209.56;2084907;28;19940;-46
2022/04/11 03:55:44;;;;;;;;;;;;;;;17.06;61.80;99208.09;2089164;28;19928;-48
2022/04/11 03:56:46;;;;;;;;;;;;;;;17.07;61.77;99199.84;2087906;28;19977;-46
2022/04/11 03:57:47;;;;;;;;;;;;;;;17.07;61.72;99197.16;2086214;28;19925;-47
2022/04/11 03:58:48;;;;;;;;;;;;;;;17.04;61.73;99205.56;2086242;28;19936;-48
2022/04/11 03:59:49;;;;;;;;;;;;;;;17.03;61.83;99200.41;2088877;28;19949;-48
2022/04/11 04:00:50;;;;;;;;;;;;;;;17.06;61.81;99206.22;2089833;28;19982;-47
2022/04/11 04:01:51;;;;;;;;;;;;;;;17.01;61.84;99207.78;2085944;28;20341;-49
2022/04/11 04:02:52;;;;;;;;;;;;;;;17.02;61.84;99204.94;2083842;28;19925;-48
2022/04/11 04:03:53;;;;;;;;;;;;;;;17.04;61.93;99196.69;2085883;28;19924;-47
2022/04/11 04:04:55;;;;;;;;;;;;;;;17.05;61.71;99204.56;2089482;28;20424;-52
2022/04/11 04:05:55;;;;;;;;;;;;;;;17.09;61.75;99199.69;2085896;28;19929;-49
2022/04/11 04:06:57;;;;;;;;;;;;;;;17.10;61.73;99201.34;2088628;28;19924;-49
2022/04/11 04:07:57;;;;;;;;;;;;;;;17.07;61.81;99197.16;2083336;28;20368;-47
2022/04/11 04:08:59;;;;;;;;;;;;;;;17.04;62.17;99194.84;2086121;28;19990;-50
2022/04/11 04:09:59;;;;;;;;;;;;;;;17.04;61.81;99204.75;2088026;28;19925;-49
2022/04/11 04:11:03;;;;;;;;;;;;;;;17.07;61.68;99193.66;2088081;28;19925;-48
2022/04/11 04:12:04;;;;;;;;;;;;;;;17.11;61.60;99195.81;2084118;28;19928;-51
2022/04/11 04:13:05;;;;;;;;;;;;;;;17.15;61.60;99198.97;2084973;28;19921;-49
2022/04/11 04:14:06;;;;;;;;;;;;;;;17.18;61.38;99194.06;2087270;28;19940;-51
2022/04/11 04:15:08;;;;;;;;;;;;;;;17.23;61.46;99200.75;2084382;28;20277;-49
2022/04/11 04:16:08;;;;;;;;;;;;;;;17.25;61.44;99198.72;2085347;28;19921;-50
2022/04/11 04:17:10;;;;;;;;;;;;;;;17.29;61.36;99202.69;2088600;28;19931;-49
2022/04/11 04:18:11;;;;;;;;;;;;;;;17.34;61.39;99203.81;2086687;28;19924;-45
2022/04/11 04:19:13;;;;;;;;;;;;;;;17.37;61.29;99202.63;2086770;28;19928;-45
2022/04/11 04:20:14;;;;;;;;;;;;;;;17.40;61.29;99202.25;2087384;28;19928;-51
2022/04/11 04:21:18;;;;;;;;;;;;;;;17.42;61.28;99198.38;2085494;28;19924;-48
2022/04/11 04:22:18;;;;;;;;;;;;;;;17.46;61.04;99206.88;2086012;28;20330;-48
2022/04/11 04:23:20;;;;;;;;;;;;;;;17.50;61.04;99202.00;2080921;28;20016;-45
2022/04/11 04:24:22;;;;;;;;;;;;;;;17.51;61.19;99198.31;2084655;28;19920;-49
2022/04/11 04:25:24;;;;;;;;;;;;;;;17.53;61.11;99199.78;2086343;28;20362;-46
2022/04/11 04:26:27;;;;;;;;;;;;;;;17.57;61.06;99203.75;2088195;28;19924;-48
2022/04/11 04:27:27;;;;;;;;;;;;;;;17.59;61.12;99204.41;2088320;28;19924;-45
2022/04/11 04:28:29;;;;;;;;;;;;;;;17.61;60.93;99202.38;2086597;28;19931;-53
2022/04/11 04:29:30;;;;;;;;;;;;;;;17.63;61.00;99205.72;2087410;28;19920;-48
2022/04/11 04:30:31;;;;;;;;;;;;;;;17.65;61.15;99201.00;2088419;28;19931;-49
2022/04/11 04:31:34;;;;;;;;;;;;;;;17.65;60.88;99201.00;2084164;28;20600;-47
2022/04/11 04:32:35;;;;;;;;;;;;;;;17.68;60.96;99205.16;2087721;28;19924;-53
2022/04/11 04:33:36;;;;;;;;;;;;;;;17.69;61.01;99196.13;2087697;28;20489;-48
2022/04/11 04:34:37;;;;;;;;;;;;;;;17.72;61.07;99193.06;2085522;28;19924;-50
2022/04/11 04:35:38;;;;;;;;;;;;;;;17.72;61.00;99201.09;2085444;28;19931;-50
2022/04/11 04:36:40;;;;;;;;;;;;;;;17.75;60.96;99189.19;2085617;28;20383;-49
2022/04/11 04:37:40;;;;;;;;;;;;;;;17.77;61.11;99187.13;2086627;28;20023;-46
2022/04/11 04:38:42;;;;;;;;;;;;;;;17.79;60.96;99190.50;2083784;28;19928;-47
2022/04/11 04:39:42;;;;;;;;;;;;;;;17.80;60.82;99189.47;2086885;28;20556;-46
2022/04/11 04:40:44;;;;;;;;;;;;;;;17.83;61.05;99199.84;2088339;28;19932;-46
2022/04/11 04:41:46;;;;;;;;;;;;;;;17.83;60.71;99194.50;2086399;28;20016;-46
2022/04/11 04:42:47;;;;;;;;;;;;;;;17.83;60.86;99186.44;2087516;28;19951;-46
2022/04/11 04:43:49;;;;;;;;;;;;;;;17.85;60.68;99195.94;2085944;28;19931;-46
2022/04/11 04:44:49;;;;;;;;;;;;;;;17.85;60.93;99195.94;2086298;28;19924;-48
2022/04/11 04:45:51;;;;;;;;;;;;;;;17.87;60.83;99190.41;2085908;28;19924;-46
2022/04/11 04:46:52;;;;;;;;;;;;;;;17.88;60.88;99200.09;2084991;28;19956;-49
2022/04/11 04:47:53;;;;;;;;;;;;;;;17.90;60.66;99195.41;2087886;28;19925;-46
2022/04/11 04:48:54;;;;;;;;;;;;;;;17.91;60.77;99202.41;2084295;28;19973;-49
2022/04/11 04:49:55;;;;;;;;;;;;;;;17.92;60.68;99200.59;2087237;28;19966;-46
2022/04/11 04:50:56;;;;;;;;;;;;;;;17.93;60.68;99208.44;2083132;28;19973;-47
2022/04/11 04:51:58;;;;;;;;;;;;;;;17.92;60.91;99201.41;2088469;28;19933;-46
2022/04/11 04:52:59;;;;;;;;;;;;;;;17.97;60.67;99214.25;2085337;28;19928;-46
2022/04/11 04:54:00;;;;;;;;;;;;;;;17.96;60.69;99208.06;2088123;28;19967;-46
2022/04/11 04:55:01;;;;;;;;;;;;;;;17.97;60.73;99209.75;2087623;28;19920;-46
2022/04/11 04:56:02;;;;;;;;;;;;;;;17.99;60.85;99215.75;2081382;28;20467;-46
2022/04/11 04:57:05;;;;;;;;;;;;;;;18.00;60.68;99213.91;2086730;28;19932;-47
2022/04/11 04:58:06;;;;;;;;;;;;;;;17.99;60.55;99213.06;2087108;28;19960;-49
2022/04/11 04:59:07;;;;;;;;;;;;;;;17.99;60.66;99213.06;2085503;28;19925;-49
2022/04/11 05:00:09;;;;;;;;;;;;;;;18.00;60.84;99217.44;2084567;28;19921;-47
2022/04/11 05:01:09;;;;;;;;;;;;;;;18.01;60.57;99216.41;2086102;28;19932;-47
2022/04/11 05:02:11;;;;;;;;;;;;;;;18.03;60.59;99217.06;2084102;28;19974;-49
2022/04/11 05:03:12;;;;;;;;;;;;;;;18.03;60.73;99219.75;2089463;28;19928;-47
2022/04/11 05:04:13;;;;;;;;;;;;;;;18.05;60.67;99227.59;2084158;28;19928;-48
2022/04/11 05:05:14;;;;;;;;;;;;;;;18.04;60.70;99226.75;2080191;28;19924;-49
2022/04/11 05:06:16;;;;;;;;;;;;;;;18.05;60.68;99225.75;2087963;28;19924;-47
2022/04/11 05:07:16;;;;;;;;;;;;;;;18.05;60.56;99223.09;2088815;28;20000;-48
2022/04/11 05:08:18;;;;;;;;;;;;;;;18.07;60.69;99221.03;2089189;28;19924;-48
2022/04/11 05:09:18;;;;;;;;;;;;;;;18.08;60.43;99222.72;2087694;28;20822;-47
2022/04/11 05:10:20;;;;;;;;;;;;;;;18.08;60.48;99220.03;2089676;28;19924;-47
2022/04/11 05:11:20;;;;;;;;;;;;;;;18.08;60.62;99224.56;2087091;28;19957;-48
2022/04/11 05:12:23;;;;;;;;;;;;;;;18.07;60.47;99221.03;2088780;28;20456;-47
2022/04/11 05:13:24;;;;;;;;;;;;;;;18.08;60.66;99219.19;2089067;28;20007;-48
2022/04/11 05:14:25;;;;;;;;;;;;;;;18.08;60.60;99222.72;2089456;28;19924;-48
2022/04/11 05:15:26;;;;;;;;;;;;;;;18.08;60.62;99211.97;2088175;28;19978;-47
2022/04/11 05:16:28;;;;;;;;;;;;;;;18.08;60.41;99214.66;2089518;28;21007;-47
2022/04/11 05:17:28;;;;;;;;;;;;;;;18.07;60.38;99212.97;2089523;28;20009;-50
2022/04/11 05:18:30;;;;;;;;;;;;;;;18.09;60.63;99208.25;2088679;28;20518;-48
2022/04/11 05:19:30;;;;;;;;;;;;;;;18.09;60.53;99207.44;2087486;28;19966;-47